Terminal Aerodrome Forecast
Issued by NWS Cleveland, OH

Home | Current Version | Previous Version | Graphics & Text | Print | Product List | Glossary Off
Versions: 1 2 3 4 5 6 7 8 9 10 11 12 13 14 15

000
FTUS41 KCLE 301000 AAB
TAFYNG
TAF AMD
KYNG 301016Z 3010/3106 VRB03KT P6SM SCT025 BKN050
      TEMPO 3010/3014 -SHRA BKN025
     FM301500 29005KT P6SM FEW035 SCT120 BKN200
     FM310300 VRB03KT P6SM OVC100=

USA.gov is the U.S. government's official web portal to all federal, state and local government web resources and services.